createdAt,value
2019-03-17T00:01:06.406Z,16.94
2019-03-17T00:02:11.090Z,17.37
2019-03-17T00:03:16.175Z,16.86
2019-03-17T00:04:30.935Z,16.74
2019-03-17T00:05:28.185Z,17.05
2019-03-17T00:06:33.242Z,16.98
2019-03-17T00:07:38.491Z,16.97
2019-03-17T00:08:43.290Z,17.07
2019-03-17T00:09:51.023Z,17.24
2019-03-17T00:10:56.008Z,16.89
2019-03-17T00:12:01.014Z,17.01
2019-03-17T00:13:05.724Z,17.12
2019-03-17T00:14:10.767Z,17.38
2019-03-17T00:15:15.997Z,17.10
2019-03-17T00:16:20.495Z,17.18
2019-03-17T00:17:25.787Z,17.14
2019-03-17T00:18:30.788Z,17.30
2019-03-17T00:19:35.545Z,17.29
2019-03-17T00:20:40.553Z,17.14
2019-03-17T00:21:45.629Z,17.16
2019-03-17T00:22:50.904Z,16.94
2019-03-17T00:23:56.230Z,17.06
2019-03-17T00:25:09.258Z,17.20
2019-03-17T00:26:08.301Z,17.28
2019-03-17T00:27:13.575Z,17.11
2019-03-17T00:28:19.159Z,17.17
2019-03-17T00:29:24.550Z,17.04
2019-03-17T00:30:29.809Z,17.02
2019-03-17T00:31:35.168Z,16.90
2019-03-17T00:32:40.199Z,17.24
2019-03-17T00:33:45.306Z,17.30
2019-03-17T00:34:51.045Z,16.98
2019-03-17T00:35:56.223Z,17.41
2019-03-17T00:37:00.935Z,17.28
2019-03-17T00:38:06.020Z,17.13
2019-03-17T00:39:11.626Z,17.24
2019-03-17T00:40:17.303Z,16.92
2019-03-17T00:41:22.580Z,17.41
2019-03-17T00:42:27.574Z,17.33
2019-03-17T00:43:32.928Z,17.30
2019-03-17T00:44:38.393Z,17.17
2019-03-17T00:45:43.839Z,17.28
2019-03-17T00:46:49.099Z,17.38
2019-03-17T00:47:54.474Z,16.95
2019-03-17T00:49:00.079Z,16.86
2019-03-17T00:50:04.947Z,17.03
2019-03-17T00:51:10.409Z,17.12
2019-03-17T00:52:15.636Z,17.05
2019-03-17T00:53:20.619Z,16.91
2019-03-17T00:54:25.905Z,16.69
2019-03-17T00:55:30.957Z,17.12
2019-03-17T00:56:35.989Z,17.00
2019-03-17T00:57:41.297Z,17.23
2019-03-17T00:58:46.409Z,17.39
2019-03-17T00:59:51.640Z,17.18
2019-03-17T01:00:57.136Z,16.96
2019-03-17T01:02:02.723Z,17.13
2019-03-17T01:03:08.078Z,17.12
2019-03-17T01:04:13.623Z,17.26
2019-03-17T01:05:18.701Z,17.10
2019-03-17T01:06:24.011Z,17.08
2019-03-17T01:07:29.241Z,17.09
2019-03-17T01:08:34.224Z,17.04
2019-03-17T01:09:39.334Z,17.11
2019-03-17T01:10:44.291Z,17.20
2019-03-17T01:11:49.967Z,16.98
2019-03-17T01:12:55.552Z,17.09
2019-03-17T01:14:01.133Z,17.16
2019-03-17T01:15:06.197Z,16.81
2019-03-17T01:16:11.234Z,16.71
2019-03-17T01:17:16.405Z,16.95
2019-03-17T01:18:22.120Z,17.22
2019-03-17T01:19:27.694Z,17.38
2019-03-17T01:20:33.091Z,17.23
2019-03-17T01:21:37.853Z,17.15
2019-03-17T01:22:42.786Z,17.11
2019-03-17T01:23:48.419Z,17.14
2019-03-17T01:24:53.499Z,17.05
2019-03-17T01:25:58.689Z,17.20
2019-03-17T01:27:03.443Z,16.99
2019-03-17T01:28:08.739Z,17.45
2019-03-17T01:29:13.981Z,17.12
2019-03-17T01:30:18.966Z,17.26
2019-03-17T01:31:24.757Z,16.88
2019-03-17T01:32:30.083Z,16.96
2019-03-17T01:33:35.365Z,17.16
2019-03-17T01:34:40.339Z,17.21
2019-03-17T01:35:45.347Z,16.95
2019-03-17T01:36:50.640Z,17.27
2019-03-17T01:37:55.101Z,17.33
2019-03-17T01:39:00.388Z,17.19
2019-03-17T01:40:05.045Z,17.03
2019-03-17T01:41:09.510Z,16.96
2019-03-17T01:42:15.153Z,17.03
2019-03-17T01:43:19.959Z,16.82
2019-03-17T01:44:25.852Z,17.06
2019-03-17T01:45:30.815Z,16.96
2019-03-17T01:46:35.817Z,16.96
2019-03-17T01:47:40.588Z,16.85
2019-03-17T01:48:47.265Z,16.64
2019-03-17T01:49:52.283Z,17.00
2019-03-17T01:50:57.251Z,17.03
2019-03-17T01:52:02.607Z,16.92
2019-03-17T01:53:10.743Z,17.06
2019-03-17T01:54:15.970Z,17.02
2019-03-17T01:55:21.601Z,17.06
2019-03-17T01:56:26.907Z,17.15
2019-03-17T01:57:32.112Z,17.12
2019-03-17T01:58:37.136Z,17.04
2019-03-17T01:59:42.119Z,17.17
2019-03-17T02:00:46.928Z,17.15
2019-03-17T02:01:52.189Z,16.87
2019-03-17T02:02:56.885Z,16.74
2019-03-17T02:04:02.155Z,17.12
2019-03-17T02:05:07.459Z,16.85
2019-03-17T02:06:12.573Z,17.12
2019-03-17T02:07:18.324Z,17.21
2019-03-17T02:08:23.596Z,17.17
2019-03-17T02:09:28.852Z,16.91
2019-03-17T02:10:33.855Z,16.92
2019-03-17T02:11:38.932Z,17.10
2019-03-17T02:12:43.945Z,16.84
2019-03-17T02:13:49.287Z,17.14
2019-03-17T02:14:54.808Z,16.98
2019-03-17T02:15:59.834Z,16.85
2019-03-17T02:17:04.639Z,16.93
2019-03-17T02:18:09.678Z,16.86
2019-03-17T02:19:14.375Z,17.11
2019-03-17T02:20:19.342Z,17.19
2019-03-17T02:21:24.332Z,16.61
2019-03-17T02:22:29.385Z,16.52
2019-03-17T02:23:35.062Z,16.87
2019-03-17T02:24:39.799Z,16.78
2019-03-17T02:25:45.384Z,17.32
2019-03-17T02:26:50.439Z,17.01
2019-03-17T02:27:55.429Z,16.98
2019-03-17T02:29:01.091Z,17.14
2019-03-17T02:30:06.276Z,17.22
2019-03-17T02:31:11.548Z,17.06
2019-03-17T02:32:17.101Z,17.38
2019-03-17T02:33:21.859Z,17.22
2019-03-17T02:34:27.177Z,17.36
2019-03-17T02:35:39.588Z,17.05
2019-03-17T02:36:39.291Z,16.90
2019-03-17T02:37:44.544Z,16.73
2019-03-17T02:38:49.844Z,16.95
2019-03-17T02:39:54.518Z,17.01
2019-03-17T02:40:59.835Z,17.20
2019-03-17T02:42:04.541Z,17.12
2019-03-17T02:43:09.571Z,17.17
2019-03-17T02:44:14.818Z,17.21
2019-03-17T02:45:19.832Z,17.27
2019-03-17T02:46:24.577Z,17.11
2019-03-17T02:47:29.534Z,17.52
2019-03-17T02:48:34.246Z,17.37
2019-03-17T02:49:39.208Z,17.29
2019-03-17T02:50:43.928Z,17.34
2019-03-17T02:51:49.587Z,17.10
2019-03-17T02:52:54.920Z,17.22
2019-03-17T02:53:59.890Z,17.10
2019-03-17T02:55:04.706Z,17.46
2019-03-17T02:56:09.467Z,17.40
2019-03-17T02:57:14.736Z,17.31
2019-03-17T02:58:19.684Z,17.07
2019-03-17T02:59:24.729Z,17.09
2019-03-17T03:00:29.747Z,17.11
2019-03-17T03:01:35.282Z,17.30
2019-03-17T03:02:40.284Z,17.08
2019-03-17T03:03:45.894Z,17.46
2019-03-17T03:04:51.415Z,17.22
2019-03-17T03:05:56.761Z,17.14
2019-03-17T03:07:02.372Z,16.85
2019-03-17T03:08:07.223Z,16.90
2019-03-17T03:09:12.451Z,17.02
2019-03-17T03:10:17.470Z,17.14
2019-03-17T03:11:22.586Z,17.28
2019-03-17T03:12:27.586Z,17.53
2019-03-17T03:13:32.833Z,17.46
2019-03-17T03:14:37.818Z,17.13
2019-03-17T03:15:42.790Z,17.22
2019-03-17T03:16:47.887Z,16.80
2019-03-17T03:17:53.940Z,17.29
2019-03-17T03:18:58.911Z,17.34
2019-03-17T03:20:04.061Z,17.40
2019-03-17T03:21:09.009Z,16.70
2019-03-17T03:22:13.688Z,16.74
2019-03-17T03:23:19.314Z,17.09
2019-03-17T03:24:24.566Z,17.31
2019-03-17T03:25:30.175Z,17.38
2019-03-17T03:26:35.482Z,17.21
2019-03-17T03:27:40.442Z,17.37
2019-03-17T03:28:48.292Z,16.98
2019-03-17T03:29:53.567Z,16.70
2019-03-17T03:30:58.597Z,17.15
2019-03-17T03:32:03.556Z,17.15
2019-03-17T03:33:08.792Z,17.17
2019-03-17T03:34:13.854Z,17.26
2019-03-17T03:35:19.276Z,17.39
2019-03-17T03:36:24.579Z,17.09
2019-03-17T03:37:30.133Z,17.02
2019-03-17T03:38:35.666Z,16.84
2019-03-17T03:39:41.384Z,17.11
2019-03-17T03:40:46.312Z,17.39
2019-03-17T03:41:51.887Z,17.10
2019-03-17T03:42:57.352Z,17.05
2019-03-17T03:44:02.483Z,17.09
2019-03-17T03:45:07.626Z,16.94
2019-03-17T03:46:12.618Z,16.88
2019-03-17T03:47:17.604Z,16.58
2019-03-17T03:48:22.912Z,16.83
2019-03-17T03:49:28.447Z,17.19
2019-03-17T03:50:33.400Z,17.13
2019-03-17T03:51:38.500Z,16.71
2019-03-17T03:52:46.512Z,16.65
2019-03-17T03:53:51.568Z,16.78
2019-03-17T03:54:56.838Z,16.80
2019-03-17T03:56:02.420Z,17.03
2019-03-17T03:57:07.866Z,17.07
2019-03-17T03:58:13.156Z,16.90
2019-03-17T03:59:18.228Z,16.68
2019-03-17T04:00:22.992Z,16.91
2019-03-17T04:01:28.282Z,17.06
2019-03-17T04:02:33.672Z,17.21
2019-03-17T04:03:38.995Z,16.79
2019-03-17T04:04:43.935Z,17.07
2019-03-17T04:05:48.933Z,17.18
2019-03-17T04:06:53.924Z,16.94
2019-03-17T04:07:59.476Z,16.72
2019-03-17T04:09:06.159Z,17.05
2019-03-17T04:10:11.326Z,17.04
2019-03-17T04:11:16.633Z,17.03
2019-03-17T04:12:21.617Z,17.05
2019-03-17T04:13:27.234Z,17.02
2019-03-17T04:14:32.612Z,17.28
2019-03-17T04:15:37.335Z,17.11
2019-03-17T04:16:42.640Z,17.12
2019-03-17T04:17:47.485Z,17.30
2019-03-17T04:18:51.933Z,17.25
2019-03-17T04:19:57.349Z,17.30
2019-03-17T04:21:02.406Z,17.34
2019-03-17T04:22:07.117Z,17.18
2019-03-17T04:23:12.097Z,16.99
2019-03-17T04:24:17.371Z,17.27
2019-03-17T04:25:22.760Z,17.30
2019-03-17T04:26:27.854Z,17.31
2019-03-17T04:27:32.938Z,16.81
2019-03-17T04:28:38.404Z,16.88
2019-03-17T04:29:43.347Z,16.91
2019-03-17T04:30:48.198Z,16.92
2019-03-17T04:31:53.629Z,16.65
2019-03-17T04:32:58.416Z,16.66
2019-03-17T04:34:03.432Z,16.62
2019-03-17T04:35:08.141Z,16.89
2019-03-17T04:36:13.426Z,16.76
2019-03-17T04:37:18.693Z,16.79
2019-03-17T04:38:24.393Z,16.95
2019-03-17T04:39:29.994Z,16.96
2019-03-17T04:40:36.641Z,16.90
2019-03-17T04:41:41.585Z,16.47
2019-03-17T04:42:46.584Z,16.47
2019-03-17T04:43:52.390Z,16.14
2019-03-17T04:44:57.188Z,16.18
2019-03-17T04:46:02.299Z,16.30
2019-03-17T04:47:07.332Z,16.50
2019-03-17T04:48:12.559Z,16.66
2019-03-17T04:49:17.831Z,16.53
2019-03-17T04:50:22.825Z,16.49
2019-03-17T04:51:27.902Z,16.61
2019-03-17T04:52:32.892Z,16.42
2019-03-17T04:53:38.107Z,16.76
2019-03-17T04:54:42.802Z,16.66
2019-03-17T04:55:48.232Z,16.58
2019-03-17T04:56:52.998Z,16.62
2019-03-17T04:57:57.968Z,16.63
2019-03-17T04:59:02.766Z,16.35
2019-03-17T05:00:08.167Z,16.69
2019-03-17T05:01:13.163Z,16.73
2019-03-17T05:02:18.235Z,16.25
2019-03-17T05:03:26.088Z,16.33
2019-03-17T05:04:31.335Z,16.61
2019-03-17T05:05:36.567Z,16.50
2019-03-17T05:06:52.164Z,16.55
2019-03-17T05:07:48.770Z,16.59
2019-03-17T05:08:53.790Z,16.45
2019-03-17T05:09:59.093Z,16.57
2019-03-17T05:11:03.564Z,16.15
2019-03-17T05:12:09.163Z,16.10
2019-03-17T05:13:14.644Z,16.35
2019-03-17T05:14:20.032Z,16.53
2019-03-17T05:15:25.013Z,16.61
2019-03-17T05:16:30.338Z,16.56
2019-03-17T05:17:35.879Z,16.53
2019-03-17T05:18:41.156Z,16.71
2019-03-17T05:19:48.136Z,16.37
2019-03-17T05:20:53.414Z,16.34
2019-03-17T05:21:58.436Z,16.21
2019-03-17T05:23:05.949Z,16.63
2019-03-17T05:24:10.493Z,16.72
2019-03-17T05:25:15.444Z,16.59
2019-03-17T05:26:21.665Z,16.36
2019-03-17T05:27:26.717Z,16.18
2019-03-17T05:28:32.301Z,15.98
2019-03-17T05:29:37.632Z,16.34
2019-03-17T05:30:42.647Z,16.23
2019-03-17T05:31:47.377Z,16.25
2019-03-17T05:32:52.339Z,15.98
2019-03-17T05:33:57.611Z,16.43
2019-03-17T05:35:03.570Z,16.42
2019-03-17T05:36:08.980Z,16.23
2019-03-17T05:37:13.961Z,16.27
2019-03-17T05:38:19.293Z,16.46
2019-03-17T05:39:24.589Z,16.42
2019-03-17T05:40:29.650Z,16.36
2019-03-17T05:41:34.822Z,16.58
2019-03-17T05:42:40.904Z,15.90
2019-03-17T05:43:46.904Z,15.91
2019-03-17T05:44:52.184Z,15.85
2019-03-17T05:45:57.728Z,16.13
2019-03-17T05:47:03.352Z,15.88
2019-03-17T05:48:08.914Z,15.95
2019-03-17T05:49:13.897Z,15.97
2019-03-17T05:50:19.256Z,16.09
2019-03-17T05:51:24.773Z,16.06
2019-03-17T05:52:29.641Z,15.86
2019-03-17T05:53:34.640Z,15.80
2019-03-17T05:54:39.332Z,15.79
2019-03-17T05:55:44.658Z,16.03
2019-03-17T05:56:49.839Z,16.01
2019-03-17T05:57:54.863Z,15.93
2019-03-17T05:59:00.244Z,16.10
2019-03-17T06:00:05.647Z,16.21
2019-03-17T06:01:11.327Z,15.97
2019-03-17T06:02:16.868Z,16.11
2019-03-17T06:03:22.212Z,15.58
2019-03-17T06:04:27.281Z,15.76
2019-03-17T06:05:32.881Z,15.41
2019-03-17T06:06:38.399Z,15.68
2019-03-17T06:07:43.377Z,15.98
2019-03-17T06:08:49.063Z,16.15
2019-03-17T06:09:54.652Z,15.83
2019-03-17T06:10:59.951Z,15.95
2019-03-17T06:12:04.632Z,15.93
2019-03-17T06:13:09.963Z,15.64
2019-03-17T06:14:15.013Z,15.64
2019-03-17T06:15:20.371Z,15.33
2019-03-17T06:16:25.999Z,15.44
2019-03-17T06:17:31.667Z,15.64
2019-03-17T06:18:36.935Z,15.78
2019-03-17T06:19:42.469Z,15.83
2019-03-17T06:20:50.503Z,15.66
2019-03-17T06:21:55.552Z,15.61
2019-03-17T06:23:00.509Z,15.49
2019-03-17T06:24:05.266Z,15.34
2019-03-17T06:25:10.410Z,15.35
2019-03-17T06:26:15.503Z,15.57
2019-03-17T06:27:20.855Z,15.68
2019-03-17T06:28:26.226Z,15.66
2019-03-17T06:29:31.773Z,15.75
2019-03-17T06:30:36.753Z,15.76
2019-03-17T06:31:42.330Z,15.97
2019-03-17T06:32:47.727Z,15.91
2019-03-17T06:33:53.159Z,15.71
2019-03-17T06:34:57.831Z,15.17
2019-03-17T06:36:03.509Z,15.49
2019-03-17T06:37:08.224Z,15.07
2019-03-17T06:38:13.869Z,14.93
2019-03-17T06:39:19.430Z,15.16
2019-03-17T06:40:24.721Z,15.15
2019-03-17T06:41:29.400Z,15.09
2019-03-17T06:42:34.898Z,15.38
2019-03-17T06:43:40.381Z,15.22
2019-03-17T06:44:45.477Z,15.13
2019-03-17T06:45:50.704Z,15.37
2019-03-17T06:46:55.988Z,15.03
2019-03-17T06:48:01.247Z,15.39
2019-03-17T06:49:06.199Z,15.17
2019-03-17T06:50:11.568Z,15.23
2019-03-17T06:51:16.597Z,15.21
2019-03-17T06:52:21.396Z,15.27
2019-03-17T06:53:26.698Z,15.31
2019-03-17T06:54:31.855Z,14.89
2019-03-17T06:55:36.860Z,15.25
2019-03-17T06:56:42.416Z,15.06
2019-03-17T06:57:47.476Z,15.62
2019-03-17T06:58:52.607Z,15.49
2019-03-17T06:59:57.585Z,15.12
2019-03-17T07:01:02.284Z,15.08
2019-03-17T07:02:07.657Z,14.84
2019-03-17T07:03:12.845Z,15.15
2019-03-17T07:04:17.852Z,15.32
2019-03-17T07:05:23.407Z,15.52
2019-03-17T07:06:27.856Z,15.29
2019-03-17T07:07:43.362Z,15.19
2019-03-17T07:08:39.996Z,15.13
2019-03-17T07:09:45.625Z,15.61
2019-03-17T07:10:50.382Z,15.22
2019-03-17T07:11:55.366Z,15.18
2019-03-17T07:13:01.061Z,15.27
2019-03-17T07:14:06.248Z,15.27
2019-03-17T07:15:11.039Z,15.78
2019-03-17T07:16:16.403Z,15.79
2019-03-17T07:17:21.403Z,15.39
2019-03-17T07:18:26.117Z,15.33
2019-03-17T07:19:31.093Z,15.58
2019-03-17T07:20:36.203Z,15.46
2019-03-17T07:21:40.990Z,15.57
2019-03-17T07:22:45.776Z,15.26
2019-03-17T07:23:50.777Z,15.14
2019-03-17T07:24:55.441Z,15.55
2019-03-17T07:26:00.883Z,15.46
2019-03-17T07:27:05.932Z,15.41
2019-03-17T07:28:11.339Z,15.02
2019-03-17T07:29:16.624Z,15.28
2019-03-17T07:30:21.642Z,15.34
2019-03-17T07:31:26.656Z,15.53
2019-03-17T07:32:31.950Z,15.51
2019-03-17T07:33:37.355Z,15.47
2019-03-17T07:34:42.632Z,15.39
2019-03-17T07:35:47.857Z,15.23
2019-03-17T07:36:53.203Z,15.16
2019-03-17T07:37:59.379Z,15.04
2019-03-17T07:39:11.792Z,15.51
2019-03-17T07:40:12.853Z,15.25
2019-03-17T07:41:17.858Z,15.34
2019-03-17T07:42:22.637Z,15.35
2019-03-17T07:43:28.094Z,15.36
2019-03-17T07:44:34.596Z,15.62
2019-03-17T07:45:39.672Z,15.77
2019-03-17T07:46:44.710Z,15.77
2019-03-17T07:47:49.904Z,15.74
2019-03-17T07:48:56.126Z,16.21
2019-03-17T07:50:02.052Z,16.45
2019-03-17T07:51:07.207Z,16.45
2019-03-17T07:52:11.950Z,15.66
2019-03-17T07:53:17.301Z,16.27
2019-03-17T07:54:22.258Z,16.38
2019-03-17T07:55:27.559Z,16.02
2019-03-17T07:56:32.676Z,16.09
2019-03-17T07:57:37.955Z,15.79
2019-03-17T07:58:43.556Z,15.65
2019-03-17T07:59:48.497Z,15.95
2019-03-17T08:00:53.772Z,15.91
2019-03-17T08:01:59.045Z,15.88
2019-03-17T08:03:04.316Z,15.78
2019-03-17T08:04:09.010Z,15.88
2019-03-17T08:05:14.636Z,15.91
2019-03-17T08:06:20.268Z,15.84
2019-03-17T08:07:25.233Z,15.96
2019-03-17T08:08:30.631Z,16.12
2019-03-17T08:09:36.019Z,15.99
2019-03-17T08:10:41.317Z,16.10
2019-03-17T08:11:48.695Z,16.14
2019-03-17T08:12:54.070Z,16.24
2019-03-17T08:13:59.409Z,16.30
2019-03-17T08:15:04.120Z,16.65
2019-03-17T08:16:09.609Z,16.67
2019-03-17T08:17:14.339Z,16.76
2019-03-17T08:18:20.069Z,17.00
2019-03-17T08:19:24.774Z,16.59
2019-03-17T08:20:29.746Z,16.73
2019-03-17T08:21:35.044Z,16.09
2019-03-17T08:22:40.377Z,16.44
2019-03-17T08:23:45.341Z,16.35
2019-03-17T08:24:50.739Z,16.43
2019-03-17T08:25:55.712Z,16.51
2019-03-17T08:27:00.991Z,16.98
2019-03-17T08:28:08.112Z,16.75
2019-03-17T08:29:13.221Z,16.80
2019-03-17T08:30:19.659Z,16.58
2019-03-17T08:31:24.924Z,16.57
2019-03-17T08:32:29.949Z,16.24
2019-03-17T08:33:34.680Z,16.72
2019-03-17T08:34:39.837Z,16.29
2019-03-17T08:35:45.089Z,16.42
2019-03-17T08:36:50.207Z,16.67
2019-03-17T08:37:55.485Z,16.43
2019-03-17T08:39:00.239Z,16.62
2019-03-17T08:40:05.733Z,16.68
2019-03-17T08:41:10.554Z,16.76
2019-03-17T08:42:15.946Z,16.29
2019-03-17T08:43:20.738Z,16.93
2019-03-17T08:44:26.004Z,17.02
2019-03-17T08:45:31.342Z,16.98
2019-03-17T08:46:36.715Z,16.52
2019-03-17T08:47:41.714Z,17.04
2019-03-17T08:48:46.991Z,17.42
2019-03-17T08:49:51.366Z,17.70
2019-03-17T08:50:56.366Z,17.96
2019-03-17T08:52:01.736Z,17.61
2019-03-17T08:53:06.512Z,17.45
2019-03-17T08:54:11.489Z,17.41
2019-03-17T08:55:16.767Z,17.55
2019-03-17T08:56:21.763Z,16.99
2019-03-17T08:57:27.074Z,17.60
2019-03-17T08:58:32.494Z,16.96
2019-03-17T08:59:38.055Z,16.83
2019-03-17T09:00:43.289Z,17.32
2019-03-17T09:01:50.518Z,16.94
2019-03-17T09:02:55.578Z,17.21
2019-03-17T09:04:00.963Z,17.09
2019-03-17T09:05:06.191Z,17.07
2019-03-17T09:06:11.383Z,17.21
2019-03-17T09:07:16.378Z,16.67
2019-03-17T09:08:33.971Z,17.03
2019-03-17T09:09:28.705Z,16.92
2019-03-17T09:10:34.000Z,16.66
2019-03-17T09:11:38.968Z,16.23
2019-03-17T09:12:44.605Z,15.89
2019-03-17T09:13:49.847Z,16.12
2019-03-17T09:14:55.108Z,16.43
2019-03-17T09:16:00.330Z,16.07
2019-03-17T09:17:14.295Z,16.66
2019-03-17T09:18:12.931Z,16.49
2019-03-17T09:19:17.637Z,16.54
2019-03-17T09:20:23.080Z,16.76
2019-03-17T09:21:28.439Z,17.25
2019-03-17T09:22:34.053Z,17.06
2019-03-17T09:23:42.413Z,16.77
2019-03-17T09:24:46.467Z,17.10
2019-03-17T09:25:51.530Z,16.51
2019-03-17T09:26:56.844Z,16.83
2019-03-17T09:28:02.600Z,16.73
2019-03-17T09:29:07.388Z,16.30
2019-03-17T09:30:13.108Z,16.49
2019-03-17T09:31:18.738Z,16.86
2019-03-17T09:32:24.261Z,16.83
2019-03-17T09:33:28.989Z,16.88
2019-03-17T09:34:34.232Z,17.08
2019-03-17T09:35:39.506Z,16.80
2019-03-17T09:36:44.836Z,17.03
2019-03-17T09:37:49.875Z,17.18
2019-03-17T09:38:54.908Z,17.63
2019-03-17T09:40:00.420Z,17.64
2019-03-17T09:41:05.756Z,17.49
2019-03-17T09:42:11.979Z,17.45
2019-03-17T09:43:17.156Z,17.14
2019-03-17T09:44:22.483Z,17.29
2019-03-17T09:45:27.720Z,17.20
2019-03-17T09:46:33.227Z,17.02
2019-03-17T09:47:40.976Z,17.01
2019-03-17T09:48:44.582Z,17.29
2019-03-17T09:49:49.950Z,17.14
2019-03-17T09:50:55.244Z,17.30
2019-03-17T09:52:00.557Z,17.31
2019-03-17T09:53:05.725Z,17.41
2019-03-17T09:54:10.980Z,17.13
2019-03-17T09:55:15.734Z,17.01
2019-03-17T09:56:20.749Z,17.27
2019-03-17T09:57:25.703Z,17.49
2019-03-17T09:58:30.678Z,17.41
2019-03-17T09:59:35.699Z,16.99
2019-03-17T10:00:40.945Z,16.90
2019-03-17T10:01:46.007Z,17.06
2019-03-17T10:02:50.965Z,17.33
2019-03-17T10:03:56.474Z,17.47
2019-03-17T10:05:01.485Z,17.75
2019-03-17T10:06:06.917Z,17.70
2019-03-17T10:07:12.373Z,17.45
2019-03-17T10:08:17.653Z,17.89
2019-03-17T10:09:22.664Z,18.16
2019-03-17T10:10:27.694Z,17.85
2019-03-17T10:11:33.041Z,18.04
2019-03-17T10:12:38.316Z,17.79
2019-03-17T10:13:43.323Z,17.77
2019-03-17T10:14:51.183Z,17.29
2019-03-17T10:15:56.230Z,16.94
2019-03-17T10:17:02.097Z,16.74
2019-03-17T10:18:06.836Z,17.00
2019-03-17T10:19:12.348Z,16.86
2019-03-17T10:20:17.068Z,16.96
2019-03-17T10:21:22.028Z,16.90
2019-03-17T10:22:27.315Z,16.87
2019-03-17T10:23:32.255Z,17.10
2019-03-17T10:24:37.270Z,17.67
2019-03-17T10:25:42.263Z,17.43
2019-03-17T10:26:49.690Z,17.09
2019-03-17T10:27:54.815Z,17.06
2019-03-17T10:29:00.142Z,17.02
2019-03-17T10:30:08.373Z,16.77
2019-03-17T10:31:13.649Z,17.06
2019-03-17T10:32:19.050Z,17.34
2019-03-17T10:33:24.047Z,16.91
2019-03-17T10:34:29.312Z,17.02
2019-03-17T10:35:34.839Z,16.96
2019-03-17T10:36:40.150Z,17.12
2019-03-17T10:37:44.919Z,16.99
2019-03-17T10:38:50.041Z,16.38
2019-03-17T10:39:55.021Z,16.44
2019-03-17T10:40:59.531Z,17.14
2019-03-17T10:42:03.989Z,17.40
2019-03-17T10:43:09.243Z,17.13
2019-03-17T10:44:14.817Z,17.15
2019-03-17T10:45:20.142Z,16.72
2019-03-17T10:46:25.113Z,17.23
2019-03-17T10:47:30.125Z,17.05
2019-03-17T10:48:35.520Z,17.91
2019-03-17T10:49:41.093Z,17.78
2019-03-17T10:50:49.767Z,18.15
2019-03-17T10:51:52.872Z,18.38
2019-03-17T10:52:57.545Z,18.86
2019-03-17T10:54:02.477Z,18.79
2019-03-17T10:55:07.356Z,18.78
2019-03-17T10:56:12.148Z,19.21
2019-03-17T10:57:17.797Z,19.86
2019-03-17T10:58:23.084Z,20.08
2019-03-17T10:59:28.074Z,19.99
2019-03-17T11:00:33.327Z,20.30
2019-03-17T11:01:38.601Z,20.10
2019-03-17T11:02:43.671Z,19.90
2019-03-17T11:03:49.345Z,20.13
2019-03-17T11:04:54.135Z,19.42
2019-03-17T11:05:59.500Z,19.98
2019-03-17T11:07:04.187Z,19.69
2019-03-17T11:08:09.155Z,20.45
2019-03-17T11:09:24.632Z,21.08
2019-03-17T11:10:21.412Z,20.59
2019-03-17T11:11:26.703Z,21.01
2019-03-17T11:12:31.446Z,20.26
2019-03-17T11:13:36.439Z,20.56
2019-03-17T11:14:41.541Z,20.54
2019-03-17T11:15:47.208Z,20.06
2019-03-17T11:16:52.160Z,20.38
2019-03-17T11:17:57.435Z,20.43
2019-03-17T11:19:02.485Z,19.36
2019-03-17T11:20:07.859Z,19.66
2019-03-17T11:21:12.373Z,20.25
2019-03-17T11:22:17.081Z,20.67
2019-03-17T11:23:25.214Z,21.16
2019-03-17T11:24:30.496Z,21.08
2019-03-17T11:25:35.212Z,20.61
2019-03-17T11:26:40.423Z,20.90
2019-03-17T11:27:45.448Z,21.23
2019-03-17T11:28:50.530Z,20.56
2019-03-17T11:29:55.587Z,21.07
2019-03-17T11:31:03.602Z,21.51
2019-03-17T11:32:08.391Z,21.41
2019-03-17T11:33:13.708Z,21.54
2019-03-17T11:34:19.023Z,20.91
2019-03-17T11:35:24.454Z,20.89
2019-03-17T11:36:29.475Z,20.45
2019-03-17T11:37:34.465Z,20.64
2019-03-17T11:38:39.562Z,21.23
2019-03-17T11:39:44.805Z,21.40
2019-03-17T11:40:50.157Z,21.42
2019-03-17T11:41:55.724Z,21.30
2019-03-17T11:43:03.018Z,21.43
2019-03-17T11:44:07.806Z,21.79
2019-03-17T11:45:13.536Z,21.96
2019-03-17T11:46:18.750Z,21.79
2019-03-17T11:47:24.066Z,22.07
2019-03-17T11:48:29.349Z,22.55
2019-03-17T11:49:34.323Z,22.40
2019-03-17T11:50:38.785Z,22.22
2019-03-17T11:51:43.239Z,22.94
2019-03-17T11:52:48.108Z,22.70
2019-03-17T11:53:53.346Z,24.09
2019-03-17T11:54:58.688Z,26.45
2019-03-17T11:56:03.468Z,25.19
2019-03-17T11:57:08.334Z,24.50
2019-03-17T11:58:13.347Z,29.78
2019-03-17T11:59:18.968Z,26.84
2019-03-17T12:00:24.116Z,29.52
2019-03-17T12:01:29.355Z,26.12
2019-03-17T12:02:34.695Z,28.81
2019-03-17T12:03:40.231Z,32.05
2019-03-17T12:04:45.308Z,34.67
2019-03-17T12:05:50.465Z,33.69
2019-03-17T12:06:55.474Z,34.10
2019-03-17T12:08:01.235Z,36.02
2019-03-17T12:09:07.909Z,37.15
2019-03-17T12:10:14.105Z,37.15
2019-03-17T12:11:19.098Z,37.66
2019-03-17T12:12:24.326Z,38.24
2019-03-17T12:13:29.375Z,37.01
2019-03-17T12:14:34.052Z,33.45
2019-03-17T12:15:39.339Z,35.73
2019-03-17T12:16:43.766Z,31.72
2019-03-17T12:17:48.448Z,30.51
2019-03-17T12:18:53.446Z,29.09
2019-03-17T12:19:58.305Z,32.71
2019-03-17T12:21:03.541Z,31.88
2019-03-17T12:22:09.492Z,28.80
2019-03-17T12:23:14.692Z,26.28
2019-03-17T12:24:19.971Z,25.61
2019-03-17T12:25:25.801Z,23.62
2019-03-17T12:26:31.375Z,24.02
2019-03-17T12:27:36.024Z,22.80
2019-03-17T12:28:41.006Z,22.81
2019-03-17T12:29:46.060Z,22.43
2019-03-17T12:30:51.140Z,20.53
2019-03-17T12:31:56.438Z,20.69
2019-03-17T12:33:01.417Z,20.26
2019-03-17T12:34:06.101Z,20.10
2019-03-17T12:35:11.315Z,19.36
2019-03-17T12:36:18.884Z,19.62
2019-03-17T12:37:23.425Z,19.46
2019-03-17T12:38:28.509Z,19.57
2019-03-17T12:39:33.769Z,20.74
2019-03-17T12:40:39.068Z,21.16
2019-03-17T12:41:44.448Z,21.45
2019-03-17T12:42:50.121Z,21.03
2019-03-17T12:43:55.149Z,21.73
2019-03-17T12:45:00.643Z,21.94
2019-03-17T12:46:05.335Z,21.54
2019-03-17T12:47:10.320Z,21.78
2019-03-17T12:48:15.607Z,21.10
2019-03-17T12:49:20.627Z,21.06
2019-03-17T12:50:25.470Z,20.26
2019-03-17T12:51:33.490Z,20.18
2019-03-17T12:52:38.932Z,19.87
2019-03-17T12:53:44.465Z,19.28
2019-03-17T12:54:50.274Z,19.28
2019-03-17T12:55:55.576Z,19.25
2019-03-17T12:57:00.568Z,18.38
2019-03-17T12:58:05.643Z,18.49
2019-03-17T12:59:10.713Z,19.26
2019-03-17T13:00:16.510Z,19.62
2019-03-17T13:01:22.053Z,19.59
2019-03-17T13:02:27.748Z,18.99
2019-03-17T13:03:33.014Z,19.13
2019-03-17T13:04:37.869Z,19.76
2019-03-17T13:05:42.660Z,19.26
2019-03-17T13:06:47.778Z,19.43
2019-03-17T13:07:53.158Z,19.33
2019-03-17T13:09:00.952Z,19.40
2019-03-17T13:10:15.060Z,19.32
2019-03-17T13:11:12.588Z,19.41
2019-03-17T13:12:17.854Z,19.01
2019-03-17T13:13:23.187Z,19.46
2019-03-17T13:14:28.267Z,19.65
2019-03-17T13:15:33.024Z,19.52
2019-03-17T13:16:37.832Z,19.79
2019-03-17T13:17:43.021Z,19.92
2019-03-17T13:18:48.311Z,20.14
2019-03-17T13:19:53.859Z,19.91
2019-03-17T13:20:59.508Z,20.09
2019-03-17T13:22:04.478Z,20.19
2019-03-17T13:23:09.847Z,20.25
2019-03-17T13:24:15.399Z,20.40
2019-03-17T13:25:20.374Z,20.12
2019-03-17T13:26:25.700Z,19.15
2019-03-17T13:27:30.978Z,19.34
2019-03-17T13:28:36.365Z,19.64
2019-03-17T13:29:41.417Z,20.06
2019-03-17T13:30:46.880Z,20.22
2019-03-17T13:31:52.249Z,20.19
2019-03-17T13:32:57.282Z,19.85
2019-03-17T13:34:02.657Z,19.49
2019-03-17T13:35:07.752Z,19.85
2019-03-17T13:36:12.733Z,19.82
2019-03-17T13:37:18.285Z,19.58
2019-03-17T13:38:23.627Z,18.69
2019-03-17T13:39:28.941Z,19.28
2019-03-17T13:40:33.461Z,18.70
2019-03-17T13:41:38.710Z,18.33
2019-03-17T13:42:43.675Z,18.78
2019-03-17T13:43:48.970Z,18.73
2019-03-17T13:44:54.362Z,18.72
2019-03-17T13:45:59.534Z,18.56
2019-03-17T13:47:04.847Z,18.73
2019-03-17T13:48:10.165Z,17.77
2019-03-17T13:49:15.496Z,17.81
2019-03-17T13:50:20.553Z,17.78
2019-03-17T13:51:25.215Z,17.25
2019-03-17T13:52:30.561Z,16.94
2019-03-17T13:53:36.376Z,17.98
2019-03-17T13:54:41.374Z,17.76
2019-03-17T13:55:46.773Z,17.51
2019-03-17T13:56:51.508Z,17.98
2019-03-17T13:57:57.016Z,18.41
2019-03-17T13:59:02.675Z,18.22
2019-03-17T14:00:09.473Z,18.29
2019-03-17T14:01:14.504Z,18.28